createdAt,value
2023-01-20T00:03:52.930Z,341.41935
2023-01-20T00:08:54.615Z,333.87342
2023-01-20T00:13:56.410Z,336.35669
2023-01-20T00:18:58.415Z,336.35669
2023-01-20T00:24:00.367Z,344
2023-01-20T00:29:01.954Z,349.26316
2023-01-20T00:34:03.613Z,365.91781
2023-01-20T00:39:05.370Z,371.77778
2023-01-20T00:44:06.855Z,368.82759
2023-01-20T00:49:08.339Z,363.04762
2023-01-20T00:54:10.135Z,368.82759
2023-01-20T00:59:12.049Z,436.8
2023-01-20T01:04:14.042Z,436.8
2023-01-20T01:09:15.660Z,519.70093
2023-01-20T01:14:17.578Z,530.66667
2023-01-20T01:19:19.777Z,572.57143
2023-01-20T01:24:21.624Z,566.22222
2023-01-20T01:29:23.531Z,572.57143
2023-01-20T01:34:25.372Z,572.57143
2023-01-20T01:39:27.144Z,579.05155
2023-01-20T01:44:28.942Z,592.42105
2023-01-20T01:49:30.498Z,566.22222
2023-01-20T01:54:32.261Z,547.92157
2023-01-20T01:59:33.789Z,519.70093
2023-01-20T02:04:36.010Z,536.30769
2023-01-20T02:09:37.874Z,519.70093
2023-01-20T02:14:39.868Z,519.70093
2023-01-20T02:19:41.669Z,504
2023-01-20T02:24:43.786Z,504
2023-01-20T02:29:45.720Z,504
2023-01-20T02:34:47.752Z,479.65217
2023-01-20T02:39:49.494Z,494
2023-01-20T02:44:51.286Z,448.91803
2023-01-20T02:49:53.116Z,448.91803
2023-01-20T02:54:55.097Z,444.81301
2023-01-20T02:59:57.141Z,479.65217
2023-01-20T03:04:59.126Z,479.65217
2023-01-20T03:10:01.093Z,417.84615
2023-01-20T03:15:02.751Z,444.81301
2023-01-20T03:20:04.224Z,444.81301
2023-01-20T03:25:05.777Z,440.77419
2023-01-20T03:30:07.284Z,417.84615
2023-01-20T03:35:09.006Z,417.84615
2023-01-20T03:40:10.501Z,407.15789
2023-01-20T03:45:12.039Z,407.15789
2023-01-20T03:50:13.856Z,414.22901
2023-01-20T03:55:15.852Z,417.84615
2023-01-20T04:00:17.808Z,410.66667
2023-01-20T04:05:19.597Z,421.51938
2023-01-20T04:10:21.044Z,417.84615
2023-01-20T04:15:22.602Z,400.2963
2023-01-20T04:20:24.290Z,400.2963
2023-01-20T04:25:26.173Z,380.87943
2023-01-20T04:30:27.648Z,384
2023-01-20T04:35:29.303Z,384
2023-01-20T04:40:31.013Z,360.21622
2023-01-20T04:45:32.500Z,360.21622
2023-01-20T04:50:34.260Z,371.77778
2023-01-20T04:55:35.766Z,363.04762
2023-01-20T05:00:37.347Z,354.66667
2023-01-20T05:05:39.314Z,384
2023-01-20T05:10:40.785Z,387.16547
2023-01-20T05:15:42.406Z,425.25
2023-01-20T05:20:43.869Z,440.77419
2023-01-20T05:25:45.697Z,444.81301
2023-01-20T05:30:47.391Z,432.88889
2023-01-20T05:35:49.157Z,453.09091
2023-01-20T05:40:50.649Z,444.81301
2023-01-20T05:45:52.343Z,453.09091
2023-01-20T05:50:53.863Z,457.33333
2023-01-20T05:55:55.384Z,466.0339
2023-01-20T06:00:56.832Z,440.77419
2023-01-20T06:05:58.532Z,436.8
2023-01-20T06:11:00.203Z,421.51938
2023-01-20T06:16:01.828Z,393.63504
2023-01-20T06:21:03.416Z,436.8
2023-01-20T06:26:05.063Z,461.64706
2023-01-20T06:31:06.758Z,470.49573
2023-01-20T06:36:08.566Z,393.63504
2023-01-20T06:41:10.339Z,470.49573
2023-01-20T06:46:11.898Z,453.09091
2023-01-20T06:51:13.529Z,466.0339
2023-01-20T06:56:15.178Z,410.66667
2023-01-20T07:01:16.949Z,453.09091
2023-01-20T07:06:18.691Z,440.77419
2023-01-20T07:11:20.439Z,448.91803
2023-01-20T07:16:21.943Z,466.0339
2023-01-20T07:21:26.124Z,448.91803
2023-01-20T07:26:28.627Z,461.64706
2023-01-20T07:31:30.475Z,453.09091
2023-01-20T07:36:32.748Z,457.33333
2023-01-20T07:41:34.431Z,453.09091
2023-01-20T07:46:36.254Z,457.33333
2023-01-20T07:51:38.364Z,479.65217
2023-01-20T07:56:39.841Z,470.49573
2023-01-20T08:01:41.523Z,498.95495
2023-01-20T08:06:43.601Z,484.35088
2023-01-20T08:11:45.410Z,494
2023-01-20T08:16:47.073Z,519.70093
2023-01-20T08:21:49.193Z,479.65217
2023-01-20T08:26:51.102Z,542.05825
2023-01-20T08:31:53.148Z,579.05155
2023-01-20T08:36:55.386Z,606.36559
2023-01-20T08:41:57.266Z,572.57143
2023-01-20T08:46:59.121Z,514.37037
2023-01-20T08:52:01.227Z,572.57143
2023-01-20T08:57:02.734Z,530.66667
2023-01-20T09:02:04.350Z,536.30769
2023-01-20T09:07:06.267Z,542.05825
2023-01-20T09:12:07.758Z,536.30769
2023-01-20T09:17:09.461Z,547.92157
2023-01-20T09:22:11.124Z,519.70093
2023-01-20T09:27:12.605Z,547.92157
2023-01-20T09:32:14.099Z,572.57143
2023-01-20T09:37:15.820Z,585.66667
2023-01-20T09:42:17.339Z,592.42105
2023-01-20T09:47:19.290Z,606.36559
2023-01-20T09:52:21.203Z,592.42105
2023-01-20T09:57:23.023Z,628.44444
2023-01-20T10:02:24.570Z,579.05155
2023-01-20T10:07:26.592Z,613.56522
2023-01-20T10:12:28.394Z,613.56522
2023-01-20T10:17:30.305Z,628.44444
2023-01-20T10:32:59.937Z,695.21951
2023-01-20T10:38:02.380Z,652.04598
2023-01-20T10:43:04.916Z,644
2023-01-20T10:48:06.498Z,636.13483
2023-01-20T10:53:08.307Z,677.33333
2023-01-20T10:58:09.930Z,723.74684
2023-01-20T11:03:11.770Z,677.33333
2023-01-20T11:08:13.663Z,652.04598
2023-01-20T11:13:15.429Z,668.70588
2023-01-20T11:18:16.985Z,686.16867
2023-01-20T11:23:18.692Z,695.21951
2023-01-20T11:28:20.401Z,704.49383
2023-01-20T11:33:22.570Z,744
2023-01-20T11:38:24.479Z,704.49383
2023-01-20T11:43:26.363Z,714
2023-01-20T11:48:28.124Z,723.74684
2023-01-20T11:53:29.816Z,733.74359
2023-01-20T11:58:31.621Z,811.60563
2023-01-20T12:03:33.089Z,765.33333
2023-01-20T12:08:34.898Z,776.43243
2023-01-20T12:13:36.544Z,776.43243
2023-01-20T12:18:38.817Z,824
2023-01-20T12:23:40.443Z,776.43243
2023-01-20T12:28:42.252Z,765.33333
2023-01-20T12:33:43.786Z,824
2023-01-20T12:38:46.012Z,877.33333
2023-01-20T12:43:48.065Z,836.75362
2023-01-20T12:48:50.069Z,799.55556
2023-01-20T12:53:52.136Z,787.83562
2023-01-20T12:58:53.906Z,863.40299
2023-01-20T13:03:56.322Z,824
2023-01-20T13:08:59.137Z,877.33333
2023-01-20T13:14:01.095Z,877.33333
2023-01-20T13:19:03.085Z,877.33333
2023-01-20T13:24:04.865Z,863.40299
2023-01-20T13:29:06.702Z,877.33333
2023-01-20T13:34:08.676Z,836.75362
2023-01-20T13:39:11.663Z,824
2023-01-20T13:44:13.869Z,836.75362
2023-01-20T13:49:15.876Z,849.88235
2023-01-20T13:54:18.212Z,849.88235
2023-01-20T13:59:20.240Z,849.88235
2023-01-20T14:04:21.938Z,891.69231
2023-01-20T14:09:24.406Z,863.40299
2023-01-20T14:14:26.624Z,863.40299
2023-01-20T14:19:28.863Z,877.33333
2023-01-20T14:24:31.289Z,849.88235
2023-01-20T14:29:33.171Z,849.88235
2023-01-20T14:34:35.530Z,953.83607
2023-01-20T14:39:37.905Z,891.69231
2023-01-20T14:44:39.937Z,863.40299
2023-01-20T14:49:41.925Z,811.60563
2023-01-20T14:54:43.991Z,723.74684
2023-01-20T14:59:45.932Z,644
2023-01-20T15:04:47.958Z,579.05155
2023-01-20T15:09:50.914Z,636.13483
2023-01-20T15:14:52.820Z,677.33333
2023-01-20T15:19:55.143Z,765.33333
2023-01-20T15:24:56.905Z,723.74684
2023-01-20T15:29:58.928Z,787.83562
2023-01-20T15:35:01.134Z,606.36559
2023-01-20T15:40:03.818Z,542.05825
2023-01-20T15:45:06.092Z,579.05155
2023-01-20T15:50:08.084Z,525.13208
2023-01-20T15:55:09.695Z,525.13208
2023-01-20T16:00:11.412Z,660.27907
2023-01-20T16:05:15.693Z,714
2023-01-20T16:10:19.093Z,723.74684
2023-01-20T16:15:20.959Z,723.74684
2023-01-20T16:20:22.766Z,677.33333
2023-01-20T16:25:24.465Z,636.13483
2023-01-20T16:30:26.214Z,620.92308
2023-01-20T16:35:28.254Z,620.92308
2023-01-20T16:40:30.172Z,606.36559
2023-01-20T16:45:31.967Z,592.42105
2023-01-20T16:50:34.005Z,560
2023-01-20T16:55:35.990Z,484.35088
2023-01-20T17:00:37.767Z,466.0339
2023-01-20T17:05:39.883Z,429.03937
2023-01-20T17:10:41.755Z,414.22901
2023-01-20T17:15:43.567Z,407.15789
2023-01-20T17:20:45.531Z,407.15789
2023-01-20T17:25:47.422Z,387.16547
2023-01-20T17:30:49.295Z,380.87943
2023-01-20T17:35:51.511Z,380.87943
2023-01-20T17:40:53.715Z,425.25
2023-01-20T17:45:55.436Z,542.05825
2023-01-20T17:50:57.599Z,530.66667
2023-01-20T17:56:11.716Z,560
2023-01-20T18:01:14.760Z,547.92157
2023-01-20T18:06:16.884Z,553.90099
2023-01-20T18:11:18.672Z,560
2023-01-20T18:16:20.286Z,553.90099
2023-01-20T18:21:22.418Z,489.13274
2023-01-20T18:26:24.198Z,429.03937
2023-01-20T18:31:26.307Z,453.09091
2023-01-20T18:36:27.979Z,536.30769
2023-01-20T18:41:29.967Z,560
2023-01-20T18:46:31.868Z,519.70093
2023-01-20T18:51:34.336Z,652.04598
2023-01-20T18:56:36.331Z,644
2023-01-20T19:01:38.395Z,613.56522
2023-01-20T19:06:40.594Z,644
2023-01-20T19:11:42.609Z,636.13483
2023-01-20T19:16:44.512Z,644
2023-01-20T19:21:46.660Z,668.70588
2023-01-20T19:26:49.080Z,660.27907
2023-01-20T19:31:51.361Z,652.04598
2023-01-20T19:36:53.634Z,660.27907
2023-01-20T19:41:55.852Z,652.04598
2023-01-20T19:46:57.909Z,628.44444
2023-01-20T19:51:59.806Z,636.13483
2023-01-20T19:57:01.675Z,599.31915
2023-01-20T20:02:03.660Z,620.92308
2023-01-20T20:07:05.768Z,620.92308
2023-01-20T20:12:07.788Z,620.92308
2023-01-20T20:17:09.452Z,613.56522
2023-01-20T20:22:10.969Z,592.42105
2023-01-20T20:27:12.785Z,592.42105
2023-01-20T20:32:14.393Z,592.42105
2023-01-20T20:37:16.289Z,599.31915
2023-01-20T20:42:18.227Z,592.42105
2023-01-20T20:47:20.003Z,606.36559
2023-01-20T20:52:21.807Z,606.36559
2023-01-20T20:57:23.512Z,553.90099
2023-01-20T21:02:25.578Z,566.22222
2023-01-20T21:07:27.305Z,566.22222
2023-01-20T21:12:29.611Z,572.57143
2023-01-20T21:17:31.501Z,547.92157
2023-01-20T21:22:33.736Z,553.90099
2023-01-20T21:27:35.999Z,566.22222
2023-01-20T21:32:37.843Z,542.05825
2023-01-20T21:37:39.952Z,536.30769
2023-01-20T21:42:41.935Z,525.13208
2023-01-20T21:47:43.615Z,514.37037
2023-01-20T21:52:45.602Z,509.13761
2023-01-20T21:57:49.484Z,525.13208
2023-01-20T22:02:52.800Z,530.66667
2023-01-20T22:07:54.794Z,525.13208
2023-01-20T22:12:56.869Z,514.37037
2023-01-20T22:17:58.741Z,530.66667
2023-01-20T22:23:01.049Z,536.30769
2023-01-20T22:28:02.926Z,542.05825
2023-01-20T22:33:04.888Z,525.13208
2023-01-20T22:38:06.811Z,519.70093
2023-01-20T22:43:08.612Z,525.13208
2023-01-20T22:48:10.269Z,553.90099
2023-01-20T22:53:11.980Z,542.05825
2023-01-20T22:58:13.521Z,536.30769
2023-01-20T23:03:15.112Z,530.66667
2023-01-20T23:08:17.183Z,498.95495
2023-01-20T23:13:19.089Z,498.95495
2023-01-20T23:18:21.021Z,494
2023-01-20T23:23:22.655Z,509.13761
2023-01-20T23:28:24.202Z,504
2023-01-20T23:33:25.664Z,509.13761
2023-01-20T23:38:27.606Z,509.13761
2023-01-20T23:43:29.498Z,494
2023-01-20T23:48:31.277Z,509.13761
2023-01-20T23:53:33.727Z,489.13274
2023-01-20T23:58:35.495Z,479.65217
